sensor_id;sensor_type;location;lat;lon;timestamp;temperature;humidity
51661;DHT22;37741;49.748;8.490;2023-03-01T00:01:23;1.60;65.50
51661;DHT22;37741;49.748;8.490;2023-03-01T00:03:49;1.60;65.60
51661;DHT22;37741;49.748;8.490;2023-03-01T00:06:15;1.60;65.60
51661;DHT22;37741;49.748;8.490;2023-03-01T00:08:41;1.60;65.70
51661;DHT22;37741;49.748;8.490;2023-03-01T00:11:12;1.60;65.80
51661;DHT22;37741;49.748;8.490;2023-03-01T00:13:38;1.60;65.90
51661;DHT22;37741;49.748;8.490;2023-03-01T00:16:11;1.60;66.00
51661;DHT22;37741;49.748;8.490;2023-03-01T00:18:38;1.50;65.90
51661;DHT22;37741;49.748;8.490;2023-03-01T00:21:04;1.50;65.90
51661;DHT22;37741;49.748;8.490;2023-03-01T00:23:31;1.50;65.90
51661;DHT22;37741;49.748;8.490;2023-03-01T00:25:57;1.50;66.00
51661;DHT22;37741;49.748;8.490;2023-03-01T00:28:22;1.50;66.10
51661;DHT22;37741;49.748;8.490;2023-03-01T00:30:48;1.50;66.20
51661;DHT22;37741;49.748;8.490;2023-03-01T00:33:14;1.50;66.30
51661;DHT22;37741;49.748;8.490;2023-03-01T00:35:39;1.40;66.30
51661;DHT22;37741;49.748;8.490;2023-03-01T00:38:05;1.40;66.30
51661;DHT22;37741;49.748;8.490;2023-03-01T00:40:33;1.40;66.30
51661;DHT22;37741;49.748;8.490;2023-03-01T00:42:59;1.40;66.40
51661;DHT22;37741;49.748;8.490;2023-03-01T00:45:26;1.40;66.40
51661;DHT22;37741;49.748;8.490;2023-03-01T00:47:53;1.40;66.40
51661;DHT22;37741;49.748;8.490;2023-03-01T00:50:19;1.40;66.50
51661;DHT22;37741;49.748;8.490;2023-03-01T00:52:45;1.40;66.60
51661;DHT22;37741;49.748;8.490;2023-03-01T00:55:11;1.30;66.60
51661;DHT22;37741;49.748;8.490;2023-03-01T00:57:37;1.30;66.60
51661;DHT22;37741;49.748;8.490;2023-03-01T01:00:06;1.30;66.70
51661;DHT22;37741;49.748;8.490;2023-03-01T01:02:33;1.30;66.70
51661;DHT22;37741;49.748;8.490;2023-03-01T01:04:59;1.30;66.80
51661;DHT22;37741;49.748;8.490;2023-03-01T01:07:24;1.30;66.80
51661;DHT22;37741;49.748;8.490;2023-03-01T01:09:50;1.30;66.90
51661;DHT22;37741;49.748;8.490;2023-03-01T01:12:16;1.30;66.90
51661;DHT22;37741;49.748;8.490;2023-03-01T01:14:41;1.30;66.90
51661;DHT22;37741;49.748;8.490;2023-03-01T01:17:07;1.20;66.90
51661;DHT22;37741;49.748;8.490;2023-03-01T01:19:32;1.20;67.00
51661;DHT22;37741;49.748;8.490;2023-03-01T01:21:58;1.20;67.00
51661;DHT22;37741;49.748;8.490;2023-03-01T01:24:24;1.20;67.10
51661;DHT22;37741;49.748;8.490;2023-03-01T01:26:49;1.10;67.10
51661;DHT22;37741;49.748;8.490;2023-03-01T01:29:15;1.20;67.20
51661;DHT22;37741;49.748;8.490;2023-03-01T01:31:41;1.10;67.20
51661;DHT22;37741;49.748;8.490;2023-03-01T01:34:08;1.10;67.30
51661;DHT22;37741;49.748;8.490;2023-03-01T01:36:37;1.10;67.30
51661;DHT22;37741;49.748;8.490;2023-03-01T01:39:03;1.10;67.30
51661;DHT22;37741;49.748;8.490;2023-03-01T01:41:30;1.10;67.30
51661;DHT22;37741;49.748;8.490;2023-03-01T01:46:43;1.00;67.40
51661;DHT22;37741;49.748;8.490;2023-03-01T01:52:18;1.00;67.60
51661;DHT22;37741;49.748;8.490;2023-03-01T01:57:24;1.00;67.90
51661;DHT22;37741;49.748;8.490;2023-03-01T01:59:53;1.00;67.90
51661;DHT22;37741;49.748;8.490;2023-03-01T02:02:20;0.90;67.90
51661;DHT22;37741;49.748;8.490;2023-03-01T02:04:47;1.00;68.00
51661;DHT22;37741;49.748;8.490;2023-03-01T02:07:16;1.00;68.10
51661;DHT22;37741;49.748;8.490;2023-03-01T02:09:47;0.90;68.10
51661;DHT22;37741;49.748;8.490;2023-03-01T02:12:16;0.90;68.10
51661;DHT22;37741;49.748;8.490;2023-03-01T02:14:43;0.90;68.20
51661;DHT22;37741;49.748;8.490;2023-03-01T02:17:10;0.90;68.20
51661;DHT22;37741;49.748;8.490;2023-03-01T02:22:29;0.90;68.40
51661;DHT22;37741;49.748;8.490;2023-03-01T02:28:02;0.90;68.40
51661;DHT22;37741;49.748;8.490;2023-03-01T02:30:31;0.80;68.50
51661;DHT22;37741;49.748;8.490;2023-03-01T02:32:58;0.80;68.50
51661;DHT22;37741;49.748;8.490;2023-03-01T02:35:32;0.80;68.50
51661;DHT22;37741;49.748;8.490;2023-03-01T02:38:00;0.80;68.70
51661;DHT22;37741;49.748;8.490;2023-03-01T02:40:28;0.80;68.70
51661;DHT22;37741;49.748;8.490;2023-03-01T02:42:57;0.80;68.70
51661;DHT22;37741;49.748;8.490;2023-03-01T02:45:24;0.80;68.70
51661;DHT22;37741;49.748;8.490;2023-03-01T02:47:49;0.80;68.80
51661;DHT22;37741;49.748;8.490;2023-03-01T02:50:25;0.80;68.80
51661;DHT22;37741;49.748;8.490;2023-03-01T02:56:01;0.80;68.90
51661;DHT22;37741;49.748;8.490;2023-03-01T02:58:27;0.80;69.00
51661;DHT22;37741;49.748;8.490;2023-03-01T03:00:52;0.70;68.90
51661;DHT22;37741;49.748;8.490;2023-03-01T03:03:20;0.70;68.90
51661;DHT22;37741;49.748;8.490;2023-03-01T03:05:46;0.70;69.60
51661;DHT22;37741;49.748;8.490;2023-03-01T03:08:14;0.70;69.00
51661;DHT22;37741;49.748;8.490;2023-03-01T03:10:41;0.70;69.00
51661;DHT22;37741;49.748;8.490;2023-03-01T03:13:13;0.70;69.10
51661;DHT22;37741;49.748;8.490;2023-03-01T03:15:40;0.70;69.10
51661;DHT22;37741;49.748;8.490;2023-03-01T03:18:09;0.70;69.20
51661;DHT22;37741;49.748;8.490;2023-03-01T03:20:36;0.60;69.20
51661;DHT22;37741;49.748;8.490;2023-03-01T03:23:03;0.70;69.30
51661;DHT22;37741;49.748;8.490;2023-03-01T03:25:29;0.70;69.30
51661;DHT22;37741;49.748;8.490;2023-03-01T03:27:55;0.60;69.30
51661;DHT22;37741;49.748;8.490;2023-03-01T03:30:30;0.60;69.40
51661;DHT22;37741;49.748;8.490;2023-03-01T03:32:57;0.60;69.50
51661;DHT22;37741;49.748;8.490;2023-03-01T03:35:31;0.60;69.50
51661;DHT22;37741;49.748;8.490;2023-03-01T03:38:00;0.60;69.60
51661;DHT22;37741;49.748;8.490;2023-03-01T03:40:37;0.60;69.60
51661;DHT22;37741;49.748;8.490;2023-03-01T03:43:05;0.60;69.60
51661;DHT22;37741;49.748;8.490;2023-03-01T03:45:31;0.50;69.60
51661;DHT22;37741;49.748;8.490;2023-03-01T03:47:59;0.60;69.60
51661;DHT22;37741;49.748;8.490;2023-03-01T03:50:25;0.50;69.60
51661;DHT22;37741;49.748;8.490;2023-03-01T03:52:51;0.60;69.70
51661;DHT22;37741;49.748;8.490;2023-03-01T03:55:17;0.60;69.70
51661;DHT22;37741;49.748;8.490;2023-03-01T03:57:45;0.50;69.70
51661;DHT22;37741;49.748;8.490;2023-03-01T04:00:18;0.50;69.70
51661;DHT22;37741;49.748;8.490;2023-03-01T04:02:45;0.50;69.80
51661;DHT22;37741;49.748;8.490;2023-03-01T04:05:16;0.50;69.80
51661;DHT22;37741;49.748;8.490;2023-03-01T04:07:42;0.50;69.80
51661;DHT22;37741;49.748;8.490;2023-03-01T04:10:11;0.50;69.90
51661;DHT22;37741;49.748;8.490;2023-03-01T04:12:37;0.50;70.00
51661;DHT22;37741;49.748;8.490;2023-03-01T04:15:04;0.50;70.00
51661;DHT22;37741;49.748;8.490;2023-03-01T04:17:44;0.50;70.00
51661;DHT22;37741;49.748;8.490;2023-03-01T04:20:15;0.50;70.00
51661;DHT22;37741;49.748;8.490;2023-03-01T04:22:50;0.40;70.00
51661;DHT22;37741;49.748;8.490;2023-03-01T04:25:16;0.40;70.10
51661;DHT22;37741;49.748;8.490;2023-03-01T04:27:41;0.50;70.10
51661;DHT22;37741;49.748;8.490;2023-03-01T04:30:08;0.40;70.10
51661;DHT22;37741;49.748;8.490;2023-03-01T04:32:33;0.40;70.10
51661;DHT22;37741;49.748;8.490;2023-03-01T04:35:00;0.40;70.10
51661;DHT22;37741;49.748;8.490;2023-03-01T04:37:26;0.40;70.10
51661;DHT22;37741;49.748;8.490;2023-03-01T04:39:51;0.40;70.10
51661;DHT22;37741;49.748;8.490;2023-03-01T04:42:17;0.40;70.30
51661;DHT22;37741;49.748;8.490;2023-03-01T04:44:44;0.40;70.30
51661;DHT22;37741;49.748;8.490;2023-03-01T04:47:09;0.40;70.30
51661;DHT22;37741;49.748;8.490;2023-03-01T04:49:35;0.40;70.30
51661;DHT22;37741;49.748;8.490;2023-03-01T04:52:03;0.40;70.40
51661;DHT22;37741;49.748;8.490;2023-03-01T04:54:33;0.40;70.40
51661;DHT22;37741;49.748;8.490;2023-03-01T04:57:00;0.40;70.40
51661;DHT22;37741;49.748;8.490;2023-03-01T04:59:25;0.40;70.40
51661;DHT22;37741;49.748;8.490;2023-03-01T05:01:52;0.40;70.50
51661;DHT22;37741;49.748;8.490;2023-03-01T05:04:21;0.40;70.50
51661;DHT22;37741;49.748;8.490;2023-03-01T05:06:47;0.40;70.50
51661;DHT22;37741;49.748;8.490;2023-03-01T05:09:12;0.40;70.70
51661;DHT22;37741;49.748;8.490;2023-03-01T05:11:38;0.40;70.50
51661;DHT22;37741;49.748;8.490;2023-03-01T05:14:08;0.40;70.60
51661;DHT22;37741;49.748;8.490;2023-03-01T05:16:35;0.40;71.20
51661;DHT22;37741;49.748;8.490;2023-03-01T05:19:01;0.40;70.70
51661;DHT22;37741;49.748;8.490;2023-03-01T05:21:37;0.40;70.70
51661;DHT22;37741;49.748;8.490;2023-03-01T05:24:23;0.30;70.70
51661;DHT22;37741;49.748;8.490;2023-03-01T05:26:49;0.40;70.80
51661;DHT22;37741;49.748;8.490;2023-03-01T05:29:17;0.30;70.80
51661;DHT22;37741;49.748;8.490;2023-03-01T05:31:43;0.30;71.00
51661;DHT22;37741;49.748;8.490;2023-03-01T05:34:09;0.30;70.90
51661;DHT22;37741;49.748;8.490;2023-03-01T05:36:34;0.30;70.90
51661;DHT22;37741;49.748;8.490;2023-03-01T05:39:00;0.30;70.90
51661;DHT22;37741;49.748;8.490;2023-03-01T05:41:26;0.30;70.90
51661;DHT22;37741;49.748;8.490;2023-03-01T05:43:51;0.40;70.90
51661;DHT22;37741;49.748;8.490;2023-03-01T05:46:17;0.30;70.90
51661;DHT22;37741;49.748;8.490;2023-03-01T05:48:42;0.30;70.90
51661;DHT22;37741;49.748;8.490;2023-03-01T05:51:08;0.30;70.90
51661;DHT22;37741;49.748;8.490;2023-03-01T05:53:34;0.30;70.90
51661;DHT22;37741;49.748;8.490;2023-03-01T05:56:03;0.40;70.90
51661;DHT22;37741;49.748;8.490;2023-03-01T05:58:29;0.30;70.90
51661;DHT22;37741;49.748;8.490;2023-03-01T06:00:54;0.40;71.00
51661;DHT22;37741;49.748;8.490;2023-03-01T06:03:20;0.30;70.80
51661;DHT22;37741;49.748;8.490;2023-03-01T06:05:46;0.30;70.80
51661;DHT22;37741;49.748;8.490;2023-03-01T06:08:12;0.30;70.80
51661;DHT22;37741;49.748;8.490;2023-03-01T06:10:38;0.30;70.90
51661;DHT22;37741;49.748;8.490;2023-03-01T06:13:04;0.30;71.00
51661;DHT22;37741;49.748;8.490;2023-03-01T06:15:30;0.30;70.90
51661;DHT22;37741;49.748;8.490;2023-03-01T06:17:56;0.30;71.00
51661;DHT22;37741;49.748;8.490;2023-03-01T06:20:25;0.30;70.90
51661;DHT22;37741;49.748;8.490;2023-03-01T06:22:52;0.30;71.00
51661;DHT22;37741;49.748;8.490;2023-03-01T06:25:20;0.30;70.90
51661;DHT22;37741;49.748;8.490;2023-03-01T06:27:47;0.30;71.00
51661;DHT22;37741;49.748;8.490;2023-03-01T06:30:16;0.30;70.90
51661;DHT22;37741;49.748;8.490;2023-03-01T06:32:42;0.30;71.00
51661;DHT22;37741;49.748;8.490;2023-03-01T06:35:13;0.30;71.00
51661;DHT22;37741;49.748;8.490;2023-03-01T06:37:40;0.30;70.90
51661;DHT22;37741;49.748;8.490;2023-03-01T06:40:07;0.30;71.00
51661;DHT22;37741;49.748;8.490;2023-03-01T06:42:34;0.30;70.90
51661;DHT22;37741;49.748;8.490;2023-03-01T06:45:00;0.30;70.90
51661;DHT22;37741;49.748;8.490;2023-03-01T06:47:26;0.30;70.90
51661;DHT22;37741;49.748;8.490;2023-03-01T06:49:51;0.30;70.90
51661;DHT22;37741;49.748;8.490;2023-03-01T06:52:17;0.30;71.00
51661;DHT22;37741;49.748;8.490;2023-03-01T06:54:42;0.30;70.80
51661;DHT22;37741;49.748;8.490;2023-03-01T06:57:08;0.30;70.90
51661;DHT22;37741;49.748;8.490;2023-03-01T06:59:33;0.30;70.90
51661;DHT22;37741;49.748;8.490;2023-03-01T07:01:59;0.40;70.90
51661;DHT22;37741;49.748;8.490;2023-03-01T07:04:25;0.40;70.90
51661;DHT22;37741;49.748;8.490;2023-03-01T07:06:53;0.40;70.80
51661;DHT22;37741;49.748;8.490;2023-03-01T07:09:21;0.40;70.90
51661;DHT22;37741;49.748;8.490;2023-03-01T07:11:48;0.40;70.90
51661;DHT22;37741;49.748;8.490;2023-03-01T07:14:13;0.40;70.90
51661;DHT22;37741;49.748;8.490;2023-03-01T07:16:39;0.40;70.90
51661;DHT22;37741;49.748;8.490;2023-03-01T07:19:05;0.40;70.90
51661;DHT22;37741;49.748;8.490;2023-03-01T07:21:31;0.40;70.90
51661;DHT22;37741;49.748;8.490;2023-03-01T07:23:56;0.40;70.90
51661;DHT22;37741;49.748;8.490;2023-03-01T07:26:22;0.40;71.00
51661;DHT22;37741;49.748;8.490;2023-03-01T07:28:47;0.40;71.10
51661;DHT22;37741;49.748;8.490;2023-03-01T07:31:13;0.40;71.00
51661;DHT22;37741;49.748;8.490;2023-03-01T07:33:39;0.40;71.00
51661;DHT22;37741;49.748;8.490;2023-03-01T07:36:05;0.40;70.90
51661;DHT22;37741;49.748;8.490;2023-03-01T07:38:32;0.40;70.90
51661;DHT22;37741;49.748;8.490;2023-03-01T07:40:59;0.40;70.90
51661;DHT22;37741;49.748;8.490;2023-03-01T07:43:26;0.40;71.00
51661;DHT22;37741;49.748;8.490;2023-03-01T07:45:51;0.40;71.10
51661;DHT22;37741;49.748;8.490;2023-03-01T07:48:17;0.40;71.10
51661;DHT22;37741;49.748;8.490;2023-03-01T07:50:43;0.40;71.10
51661;DHT22;37741;49.748;8.490;2023-03-01T07:53:09;0.50;71.10
51661;DHT22;37741;49.748;8.490;2023-03-01T07:55:35;0.40;71.10
51661;DHT22;37741;49.748;8.490;2023-03-01T07:58:01;0.50;71.10
51661;DHT22;37741;49.748;8.490;2023-03-01T08:00:26;0.50;71.00
51661;DHT22;37741;49.748;8.490;2023-03-01T08:02:52;0.50;71.00
51661;DHT22;37741;49.748;8.490;2023-03-01T08:05:18;0.50;71.00
51661;DHT22;37741;49.748;8.490;2023-03-01T08:07:44;0.50;71.00
51661;DHT22;37741;49.748;8.490;2023-03-01T08:10:11;0.50;71.00
51661;DHT22;37741;49.748;8.490;2023-03-01T08:12:36;0.50;70.90
51661;DHT22;37741;49.748;8.490;2023-03-01T08:15:02;0.50;71.00
51661;DHT22;37741;49.748;8.490;2023-03-01T08:17:28;0.50;70.90
51661;DHT22;37741;49.748;8.490;2023-03-01T08:19:53;0.50;71.00
51661;DHT22;37741;49.748;8.490;2023-03-01T08:22:19;0.50;71.10
51661;DHT22;37741;49.748;8.490;2023-03-01T08:24:44;0.50;71.20
51661;DHT22;37741;49.748;8.490;2023-03-01T08:27:10;0.50;71.00
51661;DHT22;37741;49.748;8.490;2023-03-01T08:29:37;0.60;71.00
51661;DHT22;37741;49.748;8.490;2023-03-01T08:32:03;0.50;70.90
51661;DHT22;37741;49.748;8.490;2023-03-01T08:34:28;0.60;70.90
51661;DHT22;37741;49.748;8.490;2023-03-01T08:36:54;0.60;70.90
51661;DHT22;37741;49.748;8.490;2023-03-01T08:39:20;0.60;70.90
51661;DHT22;37741;49.748;8.490;2023-03-01T08:41:47;0.60;70.90
51661;DHT22;37741;49.748;8.490;2023-03-01T08:44:13;0.60;70.90
51661;DHT22;37741;49.748;8.490;2023-03-01T08:46:41;0.60;71.10
51661;DHT22;37741;49.748;8.490;2023-03-01T08:49:10;0.60;71.00
51661;DHT22;37741;49.748;8.490;2023-03-01T08:51:36;0.60;71.00
51661;DHT22;37741;49.748;8.490;2023-03-01T08:54:07;0.60;70.90
51661;DHT22;37741;49.748;8.490;2023-03-01T08:56:35;0.60;71.10
51661;DHT22;37741;49.748;8.490;2023-03-01T08:59:00;0.70;71.10
51661;DHT22;37741;49.748;8.490;2023-03-01T09:01:26;0.70;71.00
51661;DHT22;37741;49.748;8.490;2023-03-01T09:03:52;0.70;71.20
51661;DHT22;37741;49.748;8.490;2023-03-01T09:06:17;0.70;71.20
51661;DHT22;37741;49.748;8.490;2023-03-01T09:08:45;0.70;71.10
51661;DHT22;37741;49.748;8.490;2023-03-01T09:11:14;0.70;71.00
51661;DHT22;37741;49.748;8.490;2023-03-01T09:13:41;0.70;71.00
51661;DHT22;37741;49.748;8.490;2023-03-01T09:16:07;0.70;70.90
51661;DHT22;37741;49.748;8.490;2023-03-01T09:18:34;0.70;70.90
51661;DHT22;37741;49.748;8.490;2023-03-01T09:21:02;0.70;70.90
51661;DHT22;37741;49.748;8.490;2023-03-01T09:23:33;0.80;71.10
51661;DHT22;37741;49.748;8.490;2023-03-01T09:25:59;0.80;71.20
51661;DHT22;37741;49.748;8.490;2023-03-01T09:28:25;0.70;71.00
51661;DHT22;37741;49.748;8.490;2023-03-01T09:30:50;0.80;71.20
51661;DHT22;37741;49.748;8.490;2023-03-01T09:33:16;0.80;71.00
51661;DHT22;37741;49.748;8.490;2023-03-01T09:35:41;0.80;71.00
51661;DHT22;37741;49.748;8.490;2023-03-01T09:38:12;0.80;71.00
51661;DHT22;37741;49.748;8.490;2023-03-01T09:40:42;0.80;71.00
51661;DHT22;37741;49.748;8.490;2023-03-01T09:43:18;0.80;70.90
51661;DHT22;37741;49.748;8.490;2023-03-01T09:45:48;0.80;70.90
51661;DHT22;37741;49.748;8.490;2023-03-01T09:48:19;0.90;71.00
51661;DHT22;37741;49.748;8.490;2023-03-01T09:50:47;0.90;71.00
51661;DHT22;37741;49.748;8.490;2023-03-01T09:53:36;0.90;70.90
51661;DHT22;37741;49.748;8.490;2023-03-01T09:56:05;0.90;70.90
51661;DHT22;37741;49.748;8.490;2023-03-01T10:01:27;0.90;70.90
51661;DHT22;37741;49.748;8.490;2023-03-01T10:09:38;1.00;70.80
51661;DHT22;37741;49.748;8.490;2023-03-01T10:12:18;1.00;70.80
51661;DHT22;37741;49.748;8.490;2023-03-01T10:15:14;1.00;70.80
51661;DHT22;37741;49.748;8.490;2023-03-01T10:17:51;1.10;70.90
51661;DHT22;37741;49.748;8.490;2023-03-01T10:20:23;1.00;70.80
51661;DHT22;37741;49.748;8.490;2023-03-01T10:22:50;1.10;70.80
51661;DHT22;37741;49.748;8.490;2023-03-01T10:25:44;1.10;70.80
51661;DHT22;37741;49.748;8.490;2023-03-01T10:28:25;1.10;70.80
51661;DHT22;37741;49.748;8.490;2023-03-01T10:30:51;1.10;70.80
51661;DHT22;37741;49.748;8.490;2023-03-01T10:33:24;1.20;71.40
51661;DHT22;37741;49.748;8.490;2023-03-01T10:35:51;1.20;70.80
51661;DHT22;37741;49.748;8.490;2023-03-01T10:38:18;1.20;70.70
51661;DHT22;37741;49.748;8.490;2023-03-01T10:40:58;1.20;70.70
51661;DHT22;37741;49.748;8.490;2023-03-01T10:43:26;1.20;70.70
51661;DHT22;37741;49.748;8.490;2023-03-01T10:45:53;1.20;70.60
51661;DHT22;37741;49.748;8.490;2023-03-01T10:48:26;1.30;70.60
51661;DHT22;37741;49.748;8.490;2023-03-01T10:56:08;1.40;70.40
51661;DHT22;37741;49.748;8.490;2023-03-01T10:58:36;1.40;70.30
51661;DHT22;37741;49.748;8.490;2023-03-01T11:01:29;1.40;70.30
51661;DHT22;37741;49.748;8.490;2023-03-01T11:06:41;1.50;70.10
51661;DHT22;37741;49.748;8.490;2023-03-01T11:09:16;1.50;70.10
51661;DHT22;37741;49.748;8.490;2023-03-01T11:11:43;1.50;70.00
51661;DHT22;37741;49.748;8.490;2023-03-01T11:14:22;1.50;70.00
51661;DHT22;37741;49.748;8.490;2023-03-01T11:17:01;1.60;70.00
51661;DHT22;37741;49.748;8.490;2023-03-01T11:19:28;1.60;70.00
51661;DHT22;37741;49.748;8.490;2023-03-01T11:22:12;1.60;69.80
51661;DHT22;37741;49.748;8.490;2023-03-01T11:24:52;1.60;69.70
51661;DHT22;37741;49.748;8.490;2023-03-01T11:27:26;1.70;69.70
51661;DHT22;37741;49.748;8.490;2023-03-01T11:29:57;1.70;69.70
51661;DHT22;37741;49.748;8.490;2023-03-01T11:32:26;1.80;69.60
51661;DHT22;37741;49.748;8.490;2023-03-01T11:34:55;1.80;69.50
51661;DHT22;37741;49.748;8.490;2023-03-01T11:40:24;1.90;69.30
51661;DHT22;37741;49.748;8.490;2023-03-01T11:43:00;1.90;69.10
51661;DHT22;37741;49.748;8.490;2023-03-01T11:48:46;2.00;69.00
51661;DHT22;37741;49.748;8.490;2023-03-01T11:57:00;2.10;68.80
51661;DHT22;37741;49.748;8.490;2023-03-01T12:02:27;2.20;68.70
51661;DHT22;37741;49.748;8.490;2023-03-01T12:05:14;2.10;68.60
51661;DHT22;37741;49.748;8.490;2023-03-01T12:29:53;2.60;67.60
51661;DHT22;37741;49.748;8.490;2023-03-01T12:35:48;2.60;67.00
51661;DHT22;37741;49.748;8.490;2023-03-01T12:44:06;2.70;66.70
51661;DHT22;37741;49.748;8.490;2023-03-01T12:49:30;2.80;66.50
51661;DHT22;37741;49.748;8.490;2023-03-01T12:52:06;2.90;66.50
51661;DHT22;37741;49.748;8.490;2023-03-01T12:54:36;2.90;66.40
51661;DHT22;37741;49.748;8.490;2023-03-01T13:00:05;3.00;66.10
51661;DHT22;37741;49.748;8.490;2023-03-01T13:02:45;3.00;65.80
51661;DHT22;37741;49.748;8.490;2023-03-01T13:05:26;3.10;65.70
51661;DHT22;37741;49.748;8.490;2023-03-01T13:08:19;3.20;65.80
51661;DHT22;37741;49.748;8.490;2023-03-01T13:10:51;3.20;65.80
51661;DHT22;37741;49.748;8.490;2023-03-01T13:13:24;3.30;65.90
51661;DHT22;37741;49.748;8.490;2023-03-01T13:15:51;3.30;66.00
51661;DHT22;37741;49.748;8.490;2023-03-01T13:20:47;3.40;65.50
51661;DHT22;37741;49.748;8.490;2023-03-01T13:31:01;3.60;64.60
51661;DHT22;37741;49.748;8.490;2023-03-01T13:35:57;3.70;64.60
51661;DHT22;37741;49.748;8.490;2023-03-01T13:38:46;3.80;64.60
51661;DHT22;37741;49.748;8.490;2023-03-01T13:41:16;3.80;64.40
51661;DHT22;37741;49.748;8.490;2023-03-01T13:43:46;3.80;63.70
51661;DHT22;37741;49.748;8.490;2023-03-01T13:46:21;3.90;63.70
51661;DHT22;37741;49.748;8.490;2023-03-01T13:48:53;4.00;64.10
51661;DHT22;37741;49.748;8.490;2023-03-01T13:51:25;4.00;63.70
51661;DHT22;37741;49.748;8.490;2023-03-01T13:53:52;4.10;63.40
51661;DHT22;37741;49.748;8.490;2023-03-01T13:56:33;4.10;63.40
51661;DHT22;37741;49.748;8.490;2023-03-01T13:59:18;4.20;63.30
51661;DHT22;37741;49.748;8.490;2023-03-01T14:01:43;4.20;63.60
51661;DHT22;37741;49.748;8.490;2023-03-01T14:04:30;4.30;62.90
51661;DHT22;37741;49.748;8.490;2023-03-01T14:07:20;4.30;62.90
51661;DHT22;37741;49.748;8.490;2023-03-01T14:09:54;4.30;62.60
51661;DHT22;37741;49.748;8.490;2023-03-01T14:18:18;4.50;61.00
51661;DHT22;37741;49.748;8.490;2023-03-01T14:20:45;4.60;61.50
51661;DHT22;37741;49.748;8.490;2023-03-01T14:23:19;4.70;61.50
51661;DHT22;37741;49.748;8.490;2023-03-01T14:25:53;4.70;61.60
51661;DHT22;37741;49.748;8.490;2023-03-01T14:28:39;4.70;61.70
51661;DHT22;37741;49.748;8.490;2023-03-01T14:31:37;4.80;61.10
51661;DHT22;37741;49.748;8.490;2023-03-01T14:34:05;4.90;60.90
51661;DHT22;37741;49.748;8.490;2023-03-01T14:36:33;4.90;61.10
51661;DHT22;37741;49.748;8.490;2023-03-01T14:38:59;4.90;61.40
51661;DHT22;37741;49.748;8.490;2023-03-01T14:41:33;5.00;61.30
51661;DHT22;37741;49.748;8.490;2023-03-01T14:44:03;5.00;60.40
51661;DHT22;37741;49.748;8.490;2023-03-01T14:46:33;5.00;60.80
51661;DHT22;37741;49.748;8.490;2023-03-01T14:49:20;5.10;60.60
51661;DHT22;37741;49.748;8.490;2023-03-01T14:51:59;5.10;60.90
51661;DHT22;37741;49.748;8.490;2023-03-01T14:57:01;5.20;60.20
51661;DHT22;37741;49.748;8.490;2023-03-01T14:59:27;5.30;59.80
51661;DHT22;37741;49.748;8.490;2023-03-01T15:01:56;5.30;60.00
51661;DHT22;37741;49.748;8.490;2023-03-01T15:04:23;5.40;59.90
51661;DHT22;37741;49.748;8.490;2023-03-01T15:06:56;5.40;59.60
51661;DHT22;37741;49.748;8.490;2023-03-01T15:09:31;5.50;59.90
51661;DHT22;37741;49.748;8.490;2023-03-01T15:11:57;5.50;59.50
51661;DHT22;37741;49.748;8.490;2023-03-01T15:14:28;5.60;59.60
51661;DHT22;37741;49.748;8.490;2023-03-01T15:16:55;5.60;58.70
51661;DHT22;37741;49.748;8.490;2023-03-01T15:19:23;5.70;59.10
51661;DHT22;37741;49.748;8.490;2023-03-01T15:21:51;5.70;59.10
51661;DHT22;37741;49.748;8.490;2023-03-01T15:24:20;5.70;59.00
51661;DHT22;37741;49.748;8.490;2023-03-01T15:29:24;5.80;58.50
51661;DHT22;37741;49.748;8.490;2023-03-01T15:32:00;5.80;57.90
51661;DHT22;37741;49.748;8.490;2023-03-01T15:34:31;5.90;58.50
51661;DHT22;37741;49.748;8.490;2023-03-01T15:36:58;5.90;58.40
51661;DHT22;37741;49.748;8.490;2023-03-01T15:39:39;5.90;58.70
51661;DHT22;37741;49.748;8.490;2023-03-01T15:44:35;6.00;58.30
51661;DHT22;37741;49.748;8.490;2023-03-01T15:49:53;6.00;58.10
51661;DHT22;37741;49.748;8.490;2023-03-01T15:52:45;6.10;57.70
51661;DHT22;37741;49.748;8.490;2023-03-01T15:55:20;6.10;57.50
51661;DHT22;37741;49.748;8.490;2023-03-01T15:57:46;6.10;57.40
51661;DHT22;37741;49.748;8.490;2023-03-01T16:00:13;6.10;57.70
51661;DHT22;37741;49.748;8.490;2023-03-01T16:02:41;6.10;57.60
51661;DHT22;37741;49.748;8.490;2023-03-01T16:05:19;6.10;57.40
51661;DHT22;37741;49.748;8.490;2023-03-01T16:07:45;6.10;57.60
51661;DHT22;37741;49.748;8.490;2023-03-01T16:10:10;6.10;57.50
51661;DHT22;37741;49.748;8.490;2023-03-01T16:12:36;6.10;57.40
51661;DHT22;37741;49.748;8.490;2023-03-01T16:15:02;6.10;57.60
51661;DHT22;37741;49.748;8.490;2023-03-01T16:17:27;6.10;57.80
51661;DHT22;37741;49.748;8.490;2023-03-01T16:19:53;6.10;57.60
51661;DHT22;37741;49.748;8.490;2023-03-01T16:22:19;6.10;57.80
51661;DHT22;37741;49.748;8.490;2023-03-01T16:24:50;6.10;57.80
51661;DHT22;37741;49.748;8.490;2023-03-01T16:27:15;6.10;57.80
51661;DHT22;37741;49.748;8.490;2023-03-01T16:29:41;6.10;57.60
51661;DHT22;37741;49.748;8.490;2023-03-01T16:32:06;6.10;57.80
51661;DHT22;37741;49.748;8.490;2023-03-01T16:34:32;6.10;57.90
51661;DHT22;37741;49.748;8.490;2023-03-01T16:36:58;6.10;58.10
51661;DHT22;37741;49.748;8.490;2023-03-01T16:39:23;6.10;57.90
51661;DHT22;37741;49.748;8.490;2023-03-01T16:41:49;6.10;57.80
51661;DHT22;37741;49.748;8.490;2023-03-01T16:44:15;6.10;58.00
51661;DHT22;37741;49.748;8.490;2023-03-01T16:46:41;6.10;58.00
51661;DHT22;37741;49.748;8.490;2023-03-01T16:49:07;6.10;58.10
51661;DHT22;37741;49.748;8.490;2023-03-01T16:51:33;6.10;58.10
51661;DHT22;37741;49.748;8.490;2023-03-01T16:54:00;6.10;58.00
51661;DHT22;37741;49.748;8.490;2023-03-01T16:56:27;6.10;58.30
51661;DHT22;37741;49.748;8.490;2023-03-01T16:58:54;6.10;58.20
51661;DHT22;37741;49.748;8.490;2023-03-01T17:01:20;6.10;58.20
51661;DHT22;37741;49.748;8.490;2023-03-01T17:03:49;6.10;58.30
51661;DHT22;37741;49.748;8.490;2023-03-01T17:06:18;6.00;58.20
51661;DHT22;37741;49.748;8.490;2023-03-01T17:08:45;6.10;58.20
51661;DHT22;37741;49.748;8.490;2023-03-01T17:11:17;6.10;58.20
51661;DHT22;37741;49.748;8.490;2023-03-01T17:13:43;6.10;58.30
51661;DHT22;37741;49.748;8.490;2023-03-01T17:16:12;6.00;58.30
51661;DHT22;37741;49.748;8.490;2023-03-01T17:18:38;6.00;58.30
51661;DHT22;37741;49.748;8.490;2023-03-01T17:21:05;6.00;58.40
51661;DHT22;37741;49.748;8.490;2023-03-01T17:23:32;6.00;58.50
51661;DHT22;37741;49.748;8.490;2023-03-01T17:25:58;6.00;58.10
51661;DHT22;37741;49.748;8.490;2023-03-01T17:28:29;6.00;58.50
51661;DHT22;37741;49.748;8.490;2023-03-01T17:30:55;6.00;58.40
51661;DHT22;37741;49.748;8.490;2023-03-01T17:33:21;6.00;58.50
51661;DHT22;37741;49.748;8.490;2023-03-01T17:35:47;5.90;58.60
51661;DHT22;37741;49.748;8.490;2023-03-01T17:38:14;5.90;58.50
51661;DHT22;37741;49.748;8.490;2023-03-01T17:40:40;5.90;58.40
51661;DHT22;37741;49.748;8.490;2023-03-01T17:43:07;5.90;58.50
51661;DHT22;37741;49.748;8.490;2023-03-01T17:45:36;5.90;58.50
51661;DHT22;37741;49.748;8.490;2023-03-01T17:48:01;5.90;58.60
51661;DHT22;37741;49.748;8.490;2023-03-01T17:50:27;5.90;58.70